sensor_id;sensor_type;location;lat;lon;timestamp;pressure;altitude;pressure_sealevel;temperature;humidity
7668;BME280;3876;42.204;24.686;2023-12-28T00:00:06;100555.41;;;6.04;87.48
7668;BME280;3876;42.204;24.686;2023-12-28T00:02:33;100550.22;;;5.90;87.76
7668;BME280;3876;42.204;24.686;2023-12-28T00:05:01;100554.31;;;5.74;87.48
7668;BME280;3876;42.204;24.686;2023-12-28T00:07:28;100555.09;;;5.67;88.27
7668;BME280;3876;42.204;24.686;2023-12-28T00:09:55;100554.28;;;5.70;88.69
7668;BME280;3876;42.204;24.686;2023-12-28T00:12:21;100565.34;;;5.75;88.19
7668;BME280;3876;42.204;24.686;2023-12-28T00:14:48;100543.13;;;5.56;88.13
7668;BME280;3876;42.204;24.686;2023-12-28T00:17:15;100571.22;;;5.68;88.27
7668;BME280;3876;42.204;24.686;2023-12-28T00:19:41;100564.47;;;5.68;88.78
7668;BME280;3876;42.204;24.686;2023-12-28T00:22:09;100576.34;;;5.75;88.62
7668;BME280;3876;42.204;24.686;2023-12-28T00:24:36;100572.16;;;5.79;88.61
7668;BME280;3876;42.204;24.686;2023-12-28T00:27:03;100572.91;;;5.67;89.98
7668;BME280;3876;42.204;24.686;2023-12-28T00:29:30;100568.63;;;5.59;90.87
7668;BME280;3876;42.204;24.686;2023-12-28T00:31:57;100582.22;;;5.64;91.26
7668;BME280;3876;42.204;24.686;2023-12-28T00:34:25;100588.22;;;5.70;91.33
7668;BME280;3876;42.204;24.686;2023-12-28T00:36:51;100592.44;;;5.70;91.51
7668;BME280;3876;42.204;24.686;2023-12-28T00:39:20;100598.44;;;5.79;91.33
7668;BME280;3876;42.204;24.686;2023-12-28T00:41:46;100590.81;;;5.75;91.14
7668;BME280;3876;42.204;24.686;2023-12-28T00:44:13;100602.63;;;5.73;90.63
7668;BME280;3876;42.204;24.686;2023-12-28T00:46:40;100601.72;;;5.66;90.43
7668;BME280;3876;42.204;24.686;2023-12-28T00:49:06;100608.47;;;5.63;90.42
7668;BME280;3876;42.204;24.686;2023-12-28T00:51:33;100616.16;;;5.69;90.19
7668;BME280;3876;42.204;24.686;2023-12-28T00:54:00;100624.69;;;5.71;90.11
7668;BME280;3876;42.204;24.686;2023-12-28T00:56:28;100619.53;;;5.65;89.50
7668;BME280;3876;42.204;24.686;2023-12-28T00:58:55;100620.25;;;5.52;89.38
7668;BME280;3876;42.204;24.686;2023-12-28T01:01:21;100620.25;;;5.52;89.88
7668;BME280;3876;42.204;24.686;2023-12-28T01:03:48;100624.50;;;5.56;90.09
7668;BME280;3876;42.204;24.686;2023-12-28T01:06:15;100618.63;;;5.60;89.97
7668;BME280;3876;42.204;24.686;2023-12-28T01:08:42;100629.72;;;5.65;89.99
7668;BME280;3876;42.204;24.686;2023-12-28T01:11:10;100624.66;;;5.68;89.59
7668;BME280;3876;42.204;24.686;2023-12-28T01:13:38;100621.28;;;5.72;89.67
7668;BME280;3876;42.204;24.686;2023-12-28T01:16:06;100624.72;;;5.74;89.57
7668;BME280;3876;42.204;24.686;2023-12-28T01:18:32;100622.16;;;5.75;89.64
7668;BME280;3876;42.204;24.686;2023-12-28T01:20:59;100622.16;;;5.75;89.47
7668;BME280;3876;42.204;24.686;2023-12-28T01:23:26;100623.03;;;5.79;89.28
7668;BME280;3876;42.204;24.686;2023-12-28T01:25:54;100634.94;;;5.80;89.40
7668;BME280;3876;42.204;24.686;2023-12-28T01:28:21;100631.59;;;5.84;88.86
7668;BME280;3876;42.204;24.686;2023-12-28T01:30:49;100634.03;;;5.73;89.23
7668;BME280;3876;42.204;24.686;2023-12-28T01:33:16;100628.91;;;5.72;89.34
7668;BME280;3876;42.204;24.686;2023-12-28T01:35:43;100627.19;;;5.69;89.56
7668;BME280;3876;42.204;24.686;2023-12-28T01:38:09;100622.09;;;5.66;89.81
7668;BME280;3876;42.204;24.686;2023-12-28T01:40:36;100629.75;;;5.68;89.59
7668;BME280;3876;42.204;24.686;2023-12-28T01:43:03;100626.34;;;5.69;89.73
7668;BME280;3876;42.204;24.686;2023-12-28T01:45:30;100621.25;;;5.69;89.35
7668;BME280;3876;42.204;24.686;2023-12-28T01:47:59;100627.13;;;5.59;89.72
7668;BME280;3876;42.204;24.686;2023-12-28T01:50:26;100630.50;;;5.58;90.28
7668;BME280;3876;42.204;24.686;2023-12-28T01:52:54;100622.84;;;5.58;90.69
7668;BME280;3876;42.204;24.686;2023-12-28T01:55:22;100616.03;;;5.54;90.58
7668;BME280;3876;42.204;24.686;2023-12-28T01:57:49;100604.13;;;5.50;90.10
7668;BME280;3876;42.204;24.686;2023-12-28T02:00:16;100614.31;;;5.53;90.23
7668;BME280;3876;42.204;24.686;2023-12-28T02:02:44;100611.78;;;5.53;90.44
7668;BME280;3876;42.204;24.686;2023-12-28T02:05:12;100610.94;;;5.54;90.14
7668;BME280;3876;42.204;24.686;2023-12-28T02:07:39;100603.22;;;5.46;89.75
7668;BME280;3876;42.204;24.686;2023-12-28T02:10:07;100617.66;;;5.46;89.78
7668;BME280;3876;42.204;24.686;2023-12-28T02:12:33;100626.94;;;5.44;89.37
7668;BME280;3876;42.204;24.686;2023-12-28T02:15:00;100629.41;;;5.35;89.74
7668;BME280;3876;42.204;24.686;2023-12-28T02:17:32;100625.09;;;5.26;90.21
7668;BME280;3876;42.204;24.686;2023-12-28T02:20:00;100631.03;;;5.28;90.88
7668;BME280;3876;42.204;24.686;2023-12-28T02:22:32;100636.06;;;5.25;90.62
7668;BME280;3876;42.204;24.686;2023-12-28T02:25:07;100638.59;;;5.23;91.35
7668;BME280;3876;42.204;24.686;2023-12-28T02:27:35;100640.28;;;5.21;90.96
7668;BME280;3876;42.204;24.686;2023-12-28T02:30:04;100641.09;;;5.19;91.03
7668;BME280;3876;42.204;24.686;2023-12-28T02:33:00;100650.41;;;5.17;91.21
7668;BME280;3876;42.204;24.686;2023-12-28T02:35:31;100648.66;;;5.14;91.51
7668;BME280;3876;42.204;24.686;2023-12-28T02:38:02;100637.22;;;4.79;91.86
7668;BME280;3876;42.204;24.686;2023-12-28T02:40:33;100645.72;;;4.81;91.65
7668;BME280;3876;42.204;24.686;2023-12-28T02:43:03;100642.09;;;4.64;91.79
7668;BME280;3876;42.204;24.686;2023-12-28T02:45:29;100653.97;;;4.65;91.85
7668;BME280;3876;42.204;24.686;2023-12-28T02:47:56;100650.59;;;4.66;91.79
7668;BME280;3876;42.204;24.686;2023-12-28T02:50:23;100644.72;;;4.68;92.18
7668;BME280;3876;42.204;24.686;2023-12-28T02:52:49;100637.91;;;4.67;91.76
7668;BME280;3876;42.204;24.686;2023-12-28T02:55:16;100650.69;;;4.75;91.43
7668;BME280;3876;42.204;24.686;2023-12-28T02:57:44;100649.06;;;4.77;91.76
7668;BME280;3876;42.204;24.686;2023-12-28T03:00:12;100657.53;;;4.79;91.17
7668;BME280;3876;42.204;24.686;2023-12-28T03:02:39;100655.03;;;4.81;91.01
7668;BME280;3876;42.204;24.686;2023-12-28T03:05:06;100661.84;;;4.83;90.28
7668;BME280;3876;42.204;24.686;2023-12-28T03:07:33;100661.84;;;4.83;90.08
7668;BME280;3876;42.204;24.686;2023-12-28T03:10:00;100618.28;;;4.56;89.68
7668;BME280;3876;42.204;24.686;2023-12-28T03:12:28;100643.09;;;4.75;89.83
7668;BME280;3876;42.204;24.686;2023-12-28T03:14:56;100645.72;;;4.81;89.78
7668;BME280;3876;42.204;24.686;2023-12-28T03:17:23;100651.63;;;4.82;89.40
7668;BME280;3876;42.204;24.686;2023-12-28T03:19:50;100653.34;;;4.83;89.63
7668;BME280;3876;42.204;24.686;2023-12-28T03:22:16;100648.28;;;4.81;89.50
7668;BME280;3876;42.204;24.686;2023-12-28T03:24:43;100642.34;;;4.82;89.89
7668;BME280;3876;42.204;24.686;2023-12-28T03:27:10;100636.41;;;4.82;90.03
7668;BME280;3876;42.204;24.686;2023-12-28T03:29:37;100639.75;;;4.78;90.02
7668;BME280;3876;42.204;24.686;2023-12-28T03:32:06;100634.63;;;4.76;89.94
7668;BME280;3876;42.204;24.686;2023-12-28T03:34:32;100638.88;;;4.77;90.19
7668;BME280;3876;42.204;24.686;2023-12-28T03:36:59;100637.19;;;4.76;89.84
7668;BME280;3876;42.204;24.686;2023-12-28T03:39:26;100640.53;;;4.75;90.33
7668;BME280;3876;42.204;24.686;2023-12-28T03:41:53;100646.47;;;4.74;90.46
7668;BME280;3876;42.204;24.686;2023-12-28T03:44:19;100639.69;;;4.73;90.06
7668;BME280;3876;42.204;24.686;2023-12-28T03:46:47;100615.66;;;4.50;90.30
7668;BME280;3876;42.204;24.686;2023-12-28T03:49:16;100641.31;;;4.68;90.34
7668;BME280;3876;42.204;24.686;2023-12-28T03:51:43;100635.31;;;4.63;91.01
7668;BME280;3876;42.204;24.686;2023-12-28T03:54:10;100628.34;;;4.50;91.04
7668;BME280;3876;42.204;24.686;2023-12-28T03:56:37;100635.22;;;4.57;91.56
7668;BME280;3876;42.204;24.686;2023-12-28T03:59:05;100632.72;;;4.58;91.34
7668;BME280;3876;42.204;24.686;2023-12-28T04:01:32;100631.00;;;4.57;91.32
7668;BME280;3876;42.204;24.686;2023-12-28T04:03:59;100634.41;;;4.58;91.28
7668;BME280;3876;42.204;24.686;2023-12-28T04:06:27;100650.47;;;4.57;91.05
7668;BME280;3876;42.204;24.686;2023-12-28T04:08:54;100635.94;;;4.45;91.00
7668;BME280;3876;42.204;24.686;2023-12-28T04:11:20;100656.31;;;4.51;91.22
7668;BME280;3876;42.204;24.686;2023-12-28T04:13:47;100658.81;;;4.50;91.30
7668;BME280;3876;42.204;24.686;2023-12-28T04:16:14;100651.19;;;4.50;90.55
7668;BME280;3876;42.204;24.686;2023-12-28T04:18:41;100652.84;;;4.46;90.68
7668;BME280;3876;42.204;24.686;2023-12-28T04:21:08;100651.91;;;4.40;90.93
7668;BME280;3876;42.204;24.686;2023-12-28T04:23:37;100627.94;;;4.19;90.64
7668;BME280;3876;42.204;24.686;2023-12-28T04:26:04;100656.81;;;4.28;90.89
7668;BME280;3876;42.204;24.686;2023-12-28T04:28:31;100660.13;;;4.23;91.27
7668;BME280;3876;42.204;24.686;2023-12-28T04:31:02;100662.59;;;4.20;91.11
7668;BME280;3876;42.204;24.686;2023-12-28T04:33:28;100659.84;;;4.05;91.91
7668;BME280;3876;42.204;24.686;2023-12-28T04:35:55;100676.69;;;4.00;92.45
7668;BME280;3876;42.204;24.686;2023-12-28T04:38:22;100664.81;;;3.99;92.76
7668;BME280;3876;42.204;24.686;2023-12-28T04:40:50;100655.34;;;3.89;92.55
7668;BME280;3876;42.204;24.686;2023-12-28T04:43:16;100661.22;;;3.88;92.79
7668;BME280;3876;42.204;24.686;2023-12-28T04:45:42;100673.91;;;3.88;93.25
7668;BME280;3876;42.204;24.686;2023-12-28T04:48:09;100669.69;;;3.87;93.37
7668;BME280;3876;42.204;24.686;2023-12-28T04:50:36;100672.25;;;3.89;93.83
7668;BME280;3876;42.204;24.686;2023-12-28T04:53:03;100648.50;;;3.85;93.39
7668;BME280;3876;42.204;24.686;2023-12-28T04:55:29;100673.16;;;3.92;93.60
7668;BME280;3876;42.204;24.686;2023-12-28T04:57:58;100636.63;;;3.83;93.54
7668;BME280;3876;42.204;24.686;2023-12-28T05:00:24;100664.78;;;3.96;93.54
7668;BME280;3876;42.204;24.686;2023-12-28T05:02:51;100660.56;;;3.97;93.13
7668;BME280;3876;42.204;24.686;2023-12-28T05:05:18;100636.69;;;3.86;93.24
7668;BME280;3876;42.204;24.686;2023-12-28T05:07:44;100654.63;;;3.96;92.90
7668;BME280;3876;42.204;24.686;2023-12-28T05:10:11;100652.09;;;3.96;93.02
7668;BME280;3876;42.204;24.686;2023-12-28T05:12:38;100654.56;;;3.93;93.00
7668;BME280;3876;42.204;24.686;2023-12-28T05:15:06;100666.41;;;3.94;92.44
7668;BME280;3876;42.204;24.686;2023-12-28T05:17:33;100664.66;;;3.90;92.39
7668;BME280;3876;42.204;24.686;2023-12-28T05:20:00;100665.53;;;3.92;92.66
7668;BME280;3876;42.204;24.686;2023-12-28T05:22:27;100659.44;;;3.81;92.05
7668;BME280;3876;42.204;24.686;2023-12-28T05:24:53;100669.47;;;3.75;92.25
7668;BME280;3876;42.204;24.686;2023-12-28T05:27:20;100675.34;;;3.71;92.73
7668;BME280;3876;42.204;24.686;2023-12-28T05:29:47;100668.50;;;3.67;93.19
7668;BME280;3876;42.204;24.686;2023-12-28T05:32:15;100677.88;;;3.71;93.17
7668;BME280;3876;42.204;24.686;2023-12-28T05:34:42;100664.28;;;3.67;93.11
7668;BME280;3876;42.204;24.686;2023-12-28T05:37:08;100672.75;;;3.69;93.21
7668;BME280;3876;42.204;24.686;2023-12-28T05:39:35;100676.09;;;3.67;92.75
7668;BME280;3876;42.204;24.686;2023-12-28T05:42:02;100672.59;;;3.62;93.03
7668;BME280;3876;42.204;24.686;2023-12-28T05:44:29;100672.50;;;3.56;93.12
7668;BME280;3876;42.204;24.686;2023-12-28T05:46:55;100670.72;;;3.50;93.63
7668;BME280;3876;42.204;24.686;2023-12-28T05:49:24;100650.16;;;3.35;93.43
7668;BME280;3876;42.204;24.686;2023-12-28T05:51:51;100662.94;;;3.41;93.83
7668;BME280;3876;42.204;24.686;2023-12-28T05:54:17;100663.75;;;3.39;94.21
7668;BME280;3876;42.204;24.686;2023-12-28T05:56:44;100667.16;;;3.41;94.28
7668;BME280;3876;42.204;24.686;2023-12-28T05:59:11;100661.88;;;3.30;94.62
7668;BME280;3876;42.204;24.686;2023-12-28T06:01:41;100663.72;;;3.37;94.58
7668;BME280;3876;42.204;24.686;2023-12-28T06:04:09;100666.28;;;3.39;94.53
7668;BME280;3876;42.204;24.686;2023-12-28T06:06:37;100670.44;;;3.37;94.59
7668;BME280;3876;42.204;24.686;2023-12-28T06:09:03;100665.22;;;3.28;94.63
7668;BME280;3876;42.204;24.686;2023-12-28T06:11:30;100672.06;;;3.32;94.74
7668;BME280;3876;42.204;24.686;2023-12-28T06:13:57;100673.69;;;3.30;94.86
7668;BME280;3876;42.204;24.686;2023-12-28T06:16:23;100669.47;;;3.29;95.13
7668;BME280;3876;42.204;24.686;2023-12-28T06:18:51;100678.84;;;3.33;95.09
7668;BME280;3876;42.204;24.686;2023-12-28T06:21:17;100684.72;;;3.32;95.18
7668;BME280;3876;42.204;24.686;2023-12-28T06:23:45;100690.78;;;3.38;96.49
7668;BME280;3876;42.204;24.686;2023-12-28T06:26:12;100686.69;;;3.46;97.12
7668;BME280;3876;42.204;24.686;2023-12-28T06:28:39;100678.09;;;3.38;96.58
7668;BME280;3876;42.204;24.686;2023-12-28T06:31:06;100678.91;;;3.36;96.78
7668;BME280;3876;42.204;24.686;2023-12-28T06:33:32;100691.69;;;3.42;96.38
7668;BME280;3876;42.204;24.686;2023-12-28T06:36:05;100687.50;;;3.44;96.22
7668;BME280;3876;42.204;24.686;2023-12-28T06:38:31;100691.63;;;3.40;96.72
7668;BME280;3876;42.204;24.686;2023-12-28T06:40:59;100693.25;;;3.35;96.92
7668;BME280;3876;42.204;24.686;2023-12-28T06:43:26;100700.88;;;3.37;97.05
7668;BME280;3876;42.204;24.686;2023-12-28T06:45:53;100699.19;;;3.36;96.97
7668;BME280;3876;42.204;24.686;2023-12-28T06:48:20;100694.94;;;3.36;97.11
7668;BME280;3876;42.204;24.686;2023-12-28T06:50:47;100705.94;;;3.37;97.17
7668;BME280;3876;42.204;24.686;2023-12-28T06:53:14;100692.38;;;3.35;97.42
7668;BME280;3876;42.204;24.686;2023-12-28T06:55:40;100708.63;;;3.46;97.47
7668;BME280;3876;42.204;24.686;2023-12-28T06:58:08;100701.94;;;3.49;97.51
7668;BME280;3876;42.204;24.686;2023-12-28T07:00:35;100701.22;;;3.55;97.47
7668;BME280;3876;42.204;24.686;2023-12-28T07:03:03;100704.63;;;3.57;97.43
7668;BME280;3876;42.204;24.686;2023-12-28T07:05:30;100704.69;;;3.58;97.55
7668;BME280;3876;42.204;24.686;2023-12-28T07:07:57;100706.38;;;3.59;97.42
7668;BME280;3876;42.204;24.686;2023-12-28T07:10:23;100707.28;;;3.63;97.61
7668;BME280;3876;42.204;24.686;2023-12-28T07:12:50;100699.72;;;3.66;97.99
7668;BME280;3876;42.204;24.686;2023-12-28T07:15:18;100696.44;;;3.70;98.21
7668;BME280;3876;42.204;24.686;2023-12-28T07:17:45;100699.03;;;3.73;98.41
7668;BME280;3876;42.204;24.686;2023-12-28T07:20:12;100701.59;;;3.75;98.82
7668;BME280;3876;42.204;24.686;2023-12-28T07:22:38;100701.66;;;3.79;99.00
7668;BME280;3876;42.204;24.686;2023-12-28T07:25:06;100710.22;;;3.84;99.34
7668;BME280;3876;42.204;24.686;2023-12-28T07:27:33;100702.53;;;3.80;99.48
7668;BME280;3876;42.204;24.686;2023-12-28T07:30:00;100709.47;;;3.90;99.95
7668;BME280;3876;42.204;24.686;2023-12-28T07:32:29;100705.31;;;3.93;99.89
7668;BME280;3876;42.204;24.686;2023-12-28T07:34:56;100711.28;;;3.97;100.00
7668;BME280;3876;42.204;24.686;2023-12-28T07:37:24;100711.34;;;4.00;100.00
7668;BME280;3876;42.204;24.686;2023-12-28T07:39:50;100710.53;;;4.02;100.00
7668;BME280;3876;42.204;24.686;2023-12-28T07:42:17;100703.00;;;4.07;100.00
7668;BME280;3876;42.204;24.686;2023-12-28T07:44:44;100714.03;;;4.10;100.00
7668;BME280;3876;42.204;24.686;2023-12-28T07:47:11;100714.94;;;4.14;100.00
7668;BME280;3876;42.204;24.686;2023-12-28T07:49:39;100710.78;;;4.17;100.00
7668;BME280;3876;42.204;24.686;2023-12-28T07:52:05;100710.91;;;4.25;100.00
7668;BME280;3876;42.204;24.686;2023-12-28T07:54:32;100714.41;;;4.32;100.00
7668;BME280;3876;42.204;24.686;2023-12-28T07:56:59;100711.88;;;4.32;100.00
7668;BME280;3876;42.204;24.686;2023-12-28T07:59:26;100710.47;;;4.49;100.00
7668;BME280;3876;42.204;24.686;2023-12-28T08:01:53;100708.06;;;4.58;100.00
7668;BME280;3876;42.204;24.686;2023-12-28T08:04:19;100706.41;;;4.63;100.00
7668;BME280;3876;42.204;24.686;2023-12-28T08:06:47;100715.91;;;4.74;100.00
7668;BME280;3876;42.204;24.686;2023-12-28T08:09:14;100719.41;;;4.81;100.00
7668;BME280;3876;42.204;24.686;2023-12-28T08:11:41;100718.75;;;4.94;100.00
7668;BME280;3876;42.204;24.686;2023-12-28T08:14:08;100716.28;;;5.02;100.00
7668;BME280;3876;42.204;24.686;2023-12-28T08:16:35;100723.25;;;5.16;100.00
7668;BME280;3876;42.204;24.686;2023-12-28T08:19:01;100725.03;;;5.23;100.00
7668;BME280;3876;42.204;24.686;2023-12-28T08:21:28;100725.22;;;5.39;100.00
7668;BME280;3876;42.204;24.686;2023-12-28T08:23:56;100716.88;;;5.49;100.00
7668;BME280;3876;42.204;24.686;2023-12-28T08:26:23;100719.56;;;5.61;100.00
7668;BME280;3876;42.204;24.686;2023-12-28T08:28:50;100723.06;;;5.73;100.00
7668;BME280;3876;42.204;24.686;2023-12-28T08:31:17;100718.94;;;5.83;100.00
7668;BME280;3876;42.204;24.686;2023-12-28T08:33:44;100724.16;;;5.95;100.00
7668;BME280;3876;42.204;24.686;2023-12-28T08:36:11;100713.31;;;6.13;100.00
7668;BME280;3876;42.204;24.686;2023-12-28T08:38:38;100710.88;;;6.25;100.00
7668;BME280;3876;42.204;24.686;2023-12-28T08:41:06;100710.09;;;6.37;100.00
7668;BME280;3876;42.204;24.686;2023-12-28T08:43:34;100706.78;;;6.47;100.00
7668;BME280;3876;42.204;24.686;2023-12-28T08:46:01;100699.25;;;6.62;100.00
7668;BME280;3876;42.204;24.686;2023-12-28T08:48:28;100703.59;;;6.75;100.00
7668;BME280;3876;42.204;24.686;2023-12-28T08:50:55;100692.63;;;6.88;100.00
7668;BME280;3876;42.204;24.686;2023-12-28T08:53:22;100690.97;;;7.02;100.00
7668;BME280;3876;42.204;24.686;2023-12-28T08:55:48;100681.72;;;7.16;100.00
7668;BME280;3876;42.204;24.686;2023-12-28T08:58:16;100680.91;;;7.29;100.00
7668;BME280;3876;42.204;24.686;2023-12-28T09:00:43;100677.56;;;7.46;99.40
7668;BME280;3876;42.204;24.686;2023-12-28T09:03:11;100675.88;;;7.57;99.00
7668;BME280;3876;42.204;24.686;2023-12-28T09:05:37;100671.66;;;7.74;97.79
7668;BME280;3876;42.204;24.686;2023-12-28T09:08:05;100668.28;;;7.93;97.72
7668;BME280;3876;42.204;24.686;2023-12-28T09:10:31;100668.28;;;8.05;97.40
7668;BME280;3876;42.204;24.686;2023-12-28T09:12:58;100659.75;;;8.18;96.58
7668;BME280;3876;42.204;24.686;2023-12-28T09:15:26;100660.66;;;8.32;96.83
7668;BME280;3876;42.204;24.686;2023-12-28T09:17:53;100667.41;;;8.50;97.40
7668;BME280;3876;42.204;24.686;2023-12-28T09:20:20;100659.72;;;8.64;96.43
7668;BME280;3876;42.204;24.686;2023-12-28T09:22:46;100656.28;;;8.80;95.27
7668;BME280;3876;42.204;24.686;2023-12-28T09:25:18;100654.53;;;8.97;93.29
7668;BME280;3876;42.204;24.686;2023-12-28T09:27:45;100651.09;;;9.04;92.27
7668;BME280;3876;42.204;24.686;2023-12-28T09:30:12;100630.59;;;9.10;92.02
7668;BME280;3876;42.204;24.686;2023-12-28T09:32:40;100641.59;;;9.30;91.29
7668;BME280;3876;42.204;24.686;2023-12-28T09:35:07;100626.94;;;9.54;89.54
7668;BME280;3876;42.204;24.686;2023-12-28T09:37:34;100620.84;;;9.70;88.31
7668;BME280;3876;42.204;24.686;2023-12-28T09:40:01;100608.00;;;9.79;88.54
7668;BME280;3876;42.204;24.686;2023-12-28T09:42:32;100598.44;;;9.96;89.90
7668;BME280;3876;42.204;24.686;2023-12-28T09:45:02;100594.13;;;10.04;88.77
7668;BME280;3876;42.204;24.686;2023-12-28T09:47:31;100592.31;;;10.12;86.37
7668;BME280;3876;42.204;24.686;2023-12-28T09:50:00;100576.91;;;10.20;86.67
7668;BME280;3876;42.204;24.686;2023-12-28T09:52:26;100578.50;;;10.31;86.17
7668;BME280;3876;42.204;24.686;2023-12-28T09:54:53;100572.41;;;10.41;86.33
7668;BME280;3876;42.204;24.686;2023-12-28T09:57:20;100563.75;;;10.53;85.15
7668;BME280;3876;42.204;24.686;2023-12-28T09:59:46;100557.56;;;10.69;85.76
7668;BME280;3876;42.204;24.686;2023-12-28T10:02:14;100563.44;;;10.77;84.01
7668;BME280;3876;42.204;24.686;2023-12-28T10:04:41;100568.53;;;10.82;83.42
7668;BME280;3876;42.204;24.686;2023-12-28T10:07:09;100553.91;;;10.88;82.40
7668;BME280;3876;42.204;24.686;2023-12-28T10:09:36;100555.44;;;11.00;82.51
7668;BME280;3876;42.204;24.686;2023-12-28T10:12:03;100553.50;;;11.17;82.97
7668;BME280;3876;42.204;24.686;2023-12-28T10:14:30;100543.09;;;11.26;81.68
7668;BME280;3876;42.204;24.686;2023-12-28T10:16:57;100543.97;;;11.27;80.26
7668;BME280;3876;42.204;24.686;2023-12-28T10:19:24;100534.41;;;11.36;78.65
7668;BME280;3876;42.204;24.686;2023-12-28T10:21:50;100534.34;;;11.39;77.18
7668;BME280;3876;42.204;24.686;2023-12-28T10:24:18;100531.69;;;11.45;77.16
7668;BME280;3876;42.204;24.686;2023-12-28T10:26:46;100522.22;;;11.49;78.29
7668;BME280;3876;42.204;24.686;2023-12-28T10:29:13;100523.03;;;11.51;79.17
7668;BME280;3876;42.204;24.686;2023-12-28T10:31:41;100521.19;;;11.59;78.46
7668;BME280;3876;42.204;24.686;2023-12-28T10:34:09;100517.59;;;11.69;79.39
7668;BME280;3876;42.204;24.686;2023-12-28T10:36:36;100508.16;;;11.70;77.40
7668;BME280;3876;42.204;24.686;2023-12-28T10:39:05;100515.03;;;11.71;77.59
7668;BME280;3876;42.204;24.686;2023-12-28T10:41:35;100511.53;;;11.75;76.78
7668;BME280;3876;42.204;24.686;2023-12-28T10:44:04;100504.59;;;11.80;76.72
7668;BME280;3876;42.204;24.686;2023-12-28T10:46:33;100512.97;;;11.91;76.51
7668;BME280;3876;42.204;24.686;2023-12-28T10:49:05;100495.00;;;11.89;74.20
7668;BME280;3876;42.204;24.686;2023-12-28T10:51:36;100500.94;;;11.93;71.89
7668;BME280;3876;42.204;24.686;2023-12-28T10:54:12;100500.00;;;11.97;70.85
7668;BME280;3876;42.204;24.686;2023-12-28T10:56:46;100493.94;;;12.01;69.07
7668;BME280;3876;42.204;24.686;2023-12-28T10:59:17;100486.84;;;12.12;70.89
7668;BME280;3876;42.204;24.686;2023-12-28T11:01:50;100457.09;;;12.00;71.62
7668;BME280;3876;42.204;24.686;2023-12-28T11:04:23;100473.06;;;12.16;72.26
7668;BME280;3876;42.204;24.686;2023-12-28T11:06:51;100471.22;;;12.24;72.45
7668;BME280;3876;42.204;24.686;2023-12-28T11:09:20;100464.25;;;12.29;71.14
7668;BME280;3876;42.204;24.686;2023-12-28T11:11:50;100462.41;;;12.34;70.26
7668;BME280;3876;42.204;24.686;2023-12-28T11:14:18;100403.06;;;12.05;70.77
7668;BME280;3876;42.204;24.686;2023-12-28T11:16:44;100457.09;;;12.43;70.30
7668;BME280;3876;42.204;24.686;2023-12-28T11:19:12;100452.03;;;12.40;69.68
7668;BME280;3876;42.204;24.686;2023-12-28T11:21:39;100442.47;;;12.47;69.29
7668;BME280;3876;42.204;24.686;2023-12-28T11:24:07;100436.41;;;12.49;69.65
7668;BME280;3876;42.204;24.686;2023-12-28T11:26:34;100434.75;;;12.45;69.53
7668;BME280;3876;42.204;24.686;2023-12-28T11:29:02;100428.53;;;12.55;70.06
7668;BME280;3876;42.204;24.686;2023-12-28T11:31:32;100428.31;;;12.66;69.08
7668;BME280;3876;42.204;24.686;2023-12-28T11:34:00;100424.00;;;12.67;68.69
7668;BME280;3876;42.204;24.686;2023-12-28T11:36:32;100419.59;;;12.72;69.88
7668;BME280;3876;42.204;24.686;2023-12-28T11:39:02;100415.25;;;12.74;68.79
7668;BME280;3876;42.204;24.686;2023-12-28T11:41:31;100414.41;;;12.73;68.68
7668;BME280;3876;42.204;24.686;2023-12-28T11:44:03;100414.25;;;12.81;69.54
7668;BME280;3876;42.204;24.686;2023-12-28T11:46:31;100402.13;;;12.86;69.99
7668;BME280;3876;42.204;24.686;2023-12-28T11:49:05;100403.81;;;12.87;69.01
7668;BME280;3876;42.204;24.686;2023-12-28T11:51:33;100399.41;;;12.92;69.11
7668;BME280;3876;42.204;24.686;2023-12-28T11:54:02;100404.50;;;12.95;69.16
7668;BME280;3876;42.204;24.686;2023-12-28T11:56:29;100389.22;;;12.87;68.77
7668;BME280;3876;42.204;24.686;2023-12-28T11:58:55;100405.19;;;13.01;67.84
7668;BME280;3876;42.204;24.686;2023-12-28T12:01:23;100404.19;;;13.08;67.45
7668;BME280;3876;42.204;24.686;2023-12-28T12:03:50;100395.59;;;13.08;68.03
7668;BME280;3876;42.204;24.686;2023-12-28T12:06:19;100383.47;;;13.13;68.42
7668;BME280;3876;42.204;24.686;2023-12-28T12:08:45;100380.78;;;13.18;68.32
7668;BME280;3876;42.204;24.686;2023-12-28T12:11:12;100381.56;;;13.21;67.63
7668;BME280;3876;42.204;24.686;2023-12-28T12:13:39;100379.06;;;13.18;68.56
7668;BME280;3876;42.204;24.686;2023-12-28T12:16:06;100376.44;;;13.20;68.32
7668;BME280;3876;42.204;24.686;2023-12-28T12:18:34;100377.03;;;13.29;67.93
7668;BME280;3876;42.204;24.686;2023-12-28T12:21:02;100371.13;;;13.26;67.63
7668;BME280;3876;42.204;24.686;2023-12-28T12:23:29;100355.56;;;13.30;66.88
7668;BME280;3876;42.204;24.686;2023-12-28T12:25:55;100375.50;;;13.54;67.21
7668;BME280;3876;42.204;24.686;2023-12-28T12:28:22;100367.69;;;13.59;66.40
7668;BME280;3876;42.204;24.686;2023-12-28T12:30:50;100374.63;;;13.57;66.88
7668;BME280;3876;42.204;24.686;2023-12-28T12:33:17;100366.22;;;13.49;66.73
7668;BME280;3876;42.204;24.686;2023-12-28T12:35:46;100351.78;;;13.43;66.35
7668;BME280;3876;42.204;24.686;2023-12-28T12:38:13;100360.22;;;13.48;66.55
7668;BME280;3876;42.204;24.686;2023-12-28T12:40:40;100368.00;;;13.47;67.27
7668;BME280;3876;42.204;24.686;2023-12-28T12:43:06;100362.84;;;13.47;66.56
7668;BME280;3876;42.204;24.686;2023-12-28T12:45:34;100357.88;;;13.41;67.25
7668;BME280;3876;42.204;24.686;2023-12-28T12:48:02;100354.31;;;13.45;67.13
7668;BME280;3876;42.204;24.686;2023-12-28T12:50:29;100346.56;;;13.46;67.14
7668;BME280;3876;42.204;24.686;2023-12-28T12:53:00;100344.00;;;13.45;67.79
7668;BME280;3876;42.204;24.686;2023-12-28T12:55:26;100339.63;;;13.48;67.63
7668;BME280;3876;42.204;24.686;2023-12-28T12:57:53;100332.75;;;13.49;68.24
7668;BME280;3876;42.204;24.686;2023-12-28T13:00:21;100331.88;;;13.50;67.96
7668;BME280;3876;42.204;24.686;2023-12-28T13:02:49;100341.16;;;13.55;67.92
7668;BME280;3876;42.204;24.686;2023-12-28T13:05:17;100312.41;;;13.38;67.85
7668;BME280;3876;42.204;24.686;2023-12-28T13:07:44;100344.78;;;13.48;67.79